CheckWX is a tool to help pilots better visualize weather data.  It is not intended as a substitute for an official pre-flight weather briefing.

10:09:27 UTC

VLPS TAF
Pakse International Airport
Pakse, Lao People’s Democratic Republic
TAF VLPS 260500Z 2606/2706 16006KT 9999 SCT020 SCT050 SCT200

Jun-26@
06:00 UTC

Jun-26 @ 06:00 UTC

Jun-27@
06:00 UTC

Jun-27 @ 06:00 UTC

TAF VLPS 260500Z 2606/2706 16006KT 9999 SCT020 SCT050 SCT200
Wind
  • 160° at 6 KTS
Cloud Levels
  • Scattered at 2,000' AGL
  • Scattered at 5,000' AGL
  • Scattered at 20,000' AGL